Time;durP1;ratioP1;P1;durP2;ratioP2;P2;SDS_P1;SDS_P2;PMS_P1;PMS_P2;Temp;Humidity;BMP_temperature;BMP_pressure;BME280_temperature;BME280_humidity;BME280_pressure;Samples;Min_cycle;Max_cycle;Signal;HPM_P1;HPM_P2
2022/04/06 00:02:17;;;;;;;;;;;11.10;99.90;;;;;;5007588;28;19929;-80
2022/04/06 00:04:44;;;;;;;;;;;10.30;99.90;;;;;;5013314;28;19933;-80
2022/04/06 00:07:11;;;;;;;;;;;10.30;99.90;;;;;;5004204;28;19948;-79
2022/04/06 00:09:39;;;;;;;;;;;10.20;99.90;;;;;;5010353;28;19988;-79
2022/04/06 00:12:07;;;;;;;;;;;10.20;99.90;;;;;;5000064;28;19933;-79
2022/04/06 00:14:36;;;;;;;;;;;10.20;99.90;;;;;;5009675;28;19929;-78
2022/04/06 00:17:05;;;;;;;;;;;10.30;99.90;;;;;;5007870;28;20407;-78
2022/04/06 00:19:34;;;;;;;;;;;10.20;99.90;;;;;;5003680;28;19930;-79
2022/04/06 00:22:00;;;;;;;;;;;10.30;99.90;;;;;;5008271;28;20271;-78
2022/04/06 00:24:27;;;;;;;;;;;10.20;99.90;;;;;;5010499;28;20223;-79
2022/04/06 00:26:54;;;;;;;;;;;10.20;99.90;;;;;;5010270;28;19929;-80
2022/04/06 00:29:21;;;;;;;;;;;10.20;99.90;;;;;;5008482;28;19941;-79
2022/04/06 00:31:48;;;;;;;;;;;10.20;99.90;;;;;;5009668;28;19929;-80
2022/04/06 00:34:14;;;;;;;;;;;10.20;99.90;;;;;;5012125;28;19929;-78
2022/04/06 00:36:42;;;;;;;;;;;10.20;99.90;;;;;;5024424;28;19932;-79
2022/04/06 00:39:09;;;;;;;;;;;10.20;99.90;;;;;;5006690;28;20004;-77
2022/04/06 00:41:38;;;;;;;;;;;10.20;99.90;;;;;;5005331;28;19919;-79
2022/04/06 00:44:13;;;;;;;;;;;10.20;99.90;;;;;;5010859;28;20379;-80
2022/04/06 00:46:40;;;;;;;;;;;10.20;99.90;;;;;;5004292;28;20298;-81
2022/04/06 00:49:11;;;;;;;;;;;10.20;99.90;;;;;;5007050;28;19948;-80
2022/04/06 00:51:38;;;;;;;;;;;10.20;99.90;;;;;;5006560;28;19949;-80
2022/04/06 00:54:06;;;;;;;;;;;10.20;99.90;;;;;;5007598;28;19974;-80
2022/04/06 00:56:33;;;;;;;;;;;10.20;99.90;;;;;;5009301;28;20036;-79
2022/04/06 00:59:00;;;;;;;;;;;10.20;99.90;;;;;;5002413;28;19936;-79
2022/04/06 01:01:27;;;;;;;;;;;10.20;99.90;;;;;;4997426;28;19989;-80
2022/04/06 01:03:54;;;;;;;;;;;10.20;99.90;;;;;;5015084;28;20000;-81
2022/04/06 01:06:21;;;;;;;;;;;10.20;99.90;;;;;;5012967;28;19929;-79
2022/04/06 01:08:47;;;;;;;;;;;10.20;99.90;;;;;;5018306;28;19968;-79
2022/04/06 01:11:16;;;;;;;;;;;10.20;99.90;;;;;;5036150;28;19929;-80
2022/04/06 01:13:42;;;;;;;;;;;10.10;99.90;;;;;;5017411;28;20157;-80
2022/04/06 01:16:09;;;;;;;;;;;10.10;99.90;;;;;;5020916;28;19921;-79
2022/04/06 01:18:36;;;;;;;;;;;10.10;99.90;;;;;;5026461;28;19967;-80
2022/04/06 01:21:03;;;;;;;;;;;10.10;99.90;;;;;;5013130;28;19934;-79
2022/04/06 01:23:31;;;;;;;;;;;10.10;99.90;;;;;;5019814;28;19971;-80
2022/04/06 01:25:58;;;;;;;;;;;10.10;99.90;;;;;;5019884;28;19925;-79
2022/04/06 01:28:26;;;;;;;;;;;10.10;99.90;;;;;;5017616;28;19929;-79
2022/04/06 01:30:53;;;;;;;;;;;10.10;99.90;;;;;;5002143;28;19929;-79
2022/04/06 01:33:19;;;;;;;;;;;10.10;99.90;;;;;;5008543;28;19965;-79
2022/04/06 01:35:47;;;;;;;;;;;10.10;99.90;;;;;;5008890;28;20358;-79
2022/04/06 01:38:14;;;;;;;;;;;10.10;99.90;;;;;;5003770;28;20065;-79
2022/04/06 01:40:42;;;;;;;;;;;10.10;99.90;;;;;;5008607;28;19936;-79
2022/04/06 01:43:09;;;;;;;;;;;10.10;99.90;;;;;;5021029;28;20069;-80
2022/04/06 01:45:35;;;;;;;;;;;10.10;99.90;;;;;;5023411;28;20009;-80
2022/04/06 01:48:02;;;;;;;;;;;10.00;99.90;;;;;;5018356;28;19950;-80
2022/04/06 01:53:22;;;;;;;;;;;10.10;99.90;;;;;;4991062;28;19943;-80
2022/04/06 01:55:50;;;;;;;;;;;10.00;99.90;;;;;;5011549;28;19925;-79
2022/04/06 01:58:17;;;;;;;;;;;10.00;99.90;;;;;;5009229;28;20008;-80
2022/04/06 02:00:44;;;;;;;;;;;10.10;99.90;;;;;;5016451;28;19930;-81
2022/04/06 02:03:11;;;;;;;;;;;10.00;99.90;;;;;;5012507;28;20314;-80
2022/04/06 02:05:38;;;;;;;;;;;10.00;99.90;;;;;;5012209;28;19937;-80
2022/04/06 02:08:07;;;;;;;;;;;10.00;99.90;;;;;;5001903;28;19932;-80
2022/04/06 02:10:33;;;;;;;;;;;10.00;99.90;;;;;;5013516;28;20295;-80
2022/04/06 02:13:03;;;;;;;;;;;10.40;99.90;;;;;;5003832;28;19942;-80
2022/04/06 02:15:30;;;;;;;;;;;10.00;99.90;;;;;;5011241;28;20139;-81
2022/04/06 02:17:56;;;;;;;;;;;10.00;99.90;;;;;;5013193;28;19926;-81
2022/04/06 02:20:23;;;;;;;;;;;10.00;99.90;;;;;;5014561;28;20291;-81
2022/04/06 02:22:50;;;;;;;;;;;10.00;99.90;;;;;;5014976;28;19925;-81
2022/04/06 02:25:17;;;;;;;;;;;10.00;99.90;;;;;;5006941;28;19937;-78
2022/04/06 02:27:44;;;;;;;;;;;10.00;99.90;;;;;;5013375;28;20605;-78
2022/04/06 02:30:13;;;;;;;;;;;10.00;99.90;;;;;;5022804;28;19925;-79
2022/04/06 02:32:40;;;;;;;;;;;10.00;99.90;;;;;;5009792;28;19988;-79
2022/04/06 02:35:07;;;;;;;;;;;10.00;99.90;;;;;;5010792;28;20350;-79
2022/04/06 02:37:34;;;;;;;;;;;10.00;99.90;;;;;;5003378;28;20041;-79
2022/04/06 02:40:00;;;;;;;;;;;10.00;99.90;;;;;;5003731;28;19926;-79
2022/04/06 02:42:27;;;;;;;;;;;10.00;99.90;;;;;;5008714;28;20390;-79
2022/04/06 02:44:54;;;;;;;;;;;10.00;99.90;;;;;;5005674;28;20005;-80
2022/04/06 02:47:22;;;;;;;;;;;10.00;99.90;;;;;;5011839;28;20209;-80
2022/04/06 02:49:48;;;;;;;;;;;10.00;99.90;;;;;;5008030;28;19925;-80
2022/04/06 02:52:16;;;;;;;;;;;10.00;99.90;;;;;;5005115;28;19934;-80
2022/04/06 02:54:43;;;;;;;;;;;10.00;99.90;;;;;;5014314;28;20387;-80
2022/04/06 02:57:09;;;;;;;;;;;10.00;99.90;;;;;;5019839;28;19937;-80
2022/04/06 02:59:39;;;;;;;;;;;10.00;99.90;;;;;;5019979;28;19926;-80
2022/04/06 03:02:07;;;;;;;;;;;10.00;99.90;;;;;;5015601;28;19943;-80
2022/04/06 03:04:35;;;;;;;;;;;10.00;99.90;;;;;;5020136;28;19957;-80
2022/04/06 03:07:01;;;;;;;;;;;10.00;99.90;;;;;;5020917;28;20032;-79
2022/04/06 03:09:29;;;;;;;;;;;9.90;99.90;;;;;;5015555;28;19929;-80
2022/04/06 03:11:55;;;;;;;;;;;10.00;99.90;;;;;;5013418;28;19987;-80
2022/04/06 03:14:22;;;;;;;;;;;9.90;99.90;;;;;;5019798;28;19929;-80
2022/04/06 03:16:49;;;;;;;;;;;10.00;99.90;;;;;;5012915;28;19926;-80
2022/04/06 03:19:16;;;;;;;;;;;9.90;99.90;;;;;;5008102;28;19996;-80
2022/04/06 03:21:44;;;;;;;;;;;9.90;99.90;;;;;;5012724;28;20311;-80
2022/04/06 03:24:11;;;;;;;;;;;9.90;99.90;;;;;;5006738;28;19992;-79
2022/04/06 03:26:38;;;;;;;;;;;9.90;99.90;;;;;;5011436;28;19925;-79
2022/04/06 03:29:04;;;;;;;;;;;10.00;99.90;;;;;;5003096;28;20116;-80
2022/04/06 03:31:31;;;;;;;;;;;12.50;99.90;;;;;;5008171;28;19929;-80
2022/04/06 03:33:58;;;;;;;;;;;9.90;99.90;;;;;;5022634;28;20422;-80
2022/04/06 03:36:25;;;;;;;;;;;11.40;99.90;;;;;;5012624;28;19930;-80
2022/04/06 03:38:53;;;;;;;;;;;9.90;99.90;;;;;;5018373;28;19996;-80
2022/04/06 03:41:19;;;;;;;;;;;9.90;99.90;;;;;;5025842;28;19933;-80
2022/04/06 03:43:46;;;;;;;;;;;10.00;99.90;;;;;;5017873;28;19965;-80
2022/04/06 03:46:14;;;;;;;;;;;9.90;99.90;;;;;;5010800;28;19967;-80
2022/04/06 03:48:41;;;;;;;;;;;10.00;99.90;;;;;;5031256;28;20024;-79
2022/04/06 03:51:07;;;;;;;;;;;9.90;99.90;;;;;;5017285;28;19926;-80
2022/04/06 03:53:35;;;;;;;;;;;9.90;99.90;;;;;;5021313;28;19929;-80
2022/04/06 03:56:04;;;;;;;;;;;9.90;99.90;;;;;;5008210;28;19925;-81
2022/04/06 03:58:31;;;;;;;;;;;9.90;99.90;;;;;;5006199;28;19941;-80
2022/04/06 04:00:58;;;;;;;;;;;9.90;99.90;;;;;;5008305;28;19930;-80
2022/04/06 04:03:25;;;;;;;;;;;9.80;99.90;;;;;;5002533;28;20288;-80
2022/04/06 04:05:51;;;;;;;;;;;9.80;99.90;;;;;;5004778;28;20115;-80
2022/04/06 04:08:20;;;;;;;;;;;9.80;99.90;;;;;;5015456;28;19925;-80
2022/04/06 04:10:47;;;;;;;;;;;10.80;99.90;;;;;;5011269;28;20004;-80
2022/04/06 04:13:15;;;;;;;;;;;9.80;99.90;;;;;;5003540;28;19930;-81
2022/04/06 04:15:42;;;;;;;;;;;10.70;99.90;;;;;;5008516;28;19940;-80
2022/04/06 04:18:09;;;;;;;;;;;9.80;99.90;;;;;;5007194;28;19926;-79
2022/04/06 04:20:35;;;;;;;;;;;9.70;99.90;;;;;;5009613;28;19933;-79
2022/04/06 04:23:03;;;;;;;;;;;9.70;99.90;;;;;;5001858;28;20020;-80
2022/04/06 04:25:30;;;;;;;;;;;9.60;99.90;;;;;;5000367;28;20390;-81
2022/04/06 04:27:57;;;;;;;;;;;9.60;99.90;;;;;;5007013;28;19941;-79
2022/04/06 04:30:25;;;;;;;;;;;9.50;99.90;;;;;;5005182;28;19936;-79
2022/04/06 04:32:52;;;;;;;;;;;9.40;99.90;;;;;;5008528;28;19937;-80
2022/04/06 04:35:18;;;;;;;;;;;9.40;99.90;;;;;;5010984;28;20161;-80
2022/04/06 04:37:45;;;;;;;;;;;9.40;99.90;;;;;;5003365;28;19943;-80
2022/04/06 04:40:12;;;;;;;;;;;9.30;99.90;;;;;;5007077;28;19932;-80
2022/04/06 04:42:38;;;;;;;;;;;9.30;99.90;;;;;;4996989;28;19929;-79
2022/04/06 04:45:06;;;;;;;;;;;9.30;99.90;;;;;;5001718;28;19929;-83
2022/04/06 04:47:34;;;;;;;;;;;9.30;99.90;;;;;;5012357;28;19980;-82
2022/04/06 04:50:01;;;;;;;;;;;9.30;99.90;;;;;;5011537;28;19983;-82
2022/04/06 04:52:28;;;;;;;;;;;9.30;99.90;;;;;;5004658;28;19948;-83
2022/04/06 04:54:54;;;;;;;;;;;9.40;99.90;;;;;;5009683;28;19940;-82
2022/04/06 04:57:21;;;;;;;;;;;9.40;99.90;;;;;;5010880;28;19975;-81
2022/04/06 04:59:50;;;;;;;;;;;9.40;99.90;;;;;;5014268;28;19937;-82
2022/04/06 05:02:17;;;;;;;;;;;9.50;99.90;;;;;;5007828;28;19926;-82
2022/04/06 05:04:45;;;;;;;;;;;9.50;99.90;;;;;;5020032;28;19968;-82
2022/04/06 05:07:12;;;;;;;;;;;9.50;99.90;;;;;;5031125;28;19925;-82
2022/04/06 05:09:38;;;;;;;;;;;9.50;99.90;;;;;;5015084;28;19929;-82
2022/04/06 05:12:05;;;;;;;;;;;9.60;99.90;;;;;;5007737;28;19930;-84
2022/04/06 05:14:32;;;;;;;;;;;9.60;99.90;;;;;;5006602;28;19925;-81
2022/04/06 05:17:00;;;;;;;;;;;9.60;99.90;;;;;;5015172;28;20403;-83
2022/04/06 05:19:27;;;;;;;;;;;11.90;99.90;;;;;;5013121;28;19929;-82
2022/04/06 05:21:55;;;;;;;;;;;9.70;99.90;;;;;;5005396;28;19932;-82
2022/04/06 05:24:21;;;;;;;;;;;9.80;99.90;;;;;;5010898;28;19933;-82
2022/04/06 05:26:48;;;;;;;;;;;9.80;99.90;;;;;;5042565;28;19925;-85
2022/04/06 05:29:15;;;;;;;;;;;9.90;99.90;;;;;;5029131;28;20393;-83
2022/04/06 05:31:42;;;;;;;;;;;9.90;99.90;;;;;;5023131;28;19933;-82
2022/04/06 05:34:08;;;;;;;;;;;9.90;99.90;;;;;;5028413;28;19933;-82
2022/04/06 05:36:35;;;;;;;;;;;9.90;99.90;;;;;;5026759;28;20548;-84
2022/04/06 05:39:03;;;;;;;;;;;10.60;99.90;;;;;;5015761;28;19925;-82
2022/04/06 05:41:30;;;;;;;;;;;10.00;99.90;;;;;;5018935;28;20319;-81
2022/04/06 05:43:57;;;;;;;;;;;10.00;99.90;;;;;;5019853;28;19934;-83
2022/04/06 05:46:24;;;;;;;;;;;10.00;99.90;;;;;;5016638;28;19925;-82
2022/04/06 05:48:51;;;;;;;;;;;10.10;99.90;;;;;;5015726;28;19930;-83
2022/04/06 05:51:18;;;;;;;;;;;10.10;99.90;;;;;;5016776;28;20481;-82
2022/04/06 05:53:44;;;;;;;;;;;10.10;99.90;;;;;;5009017;28;19932;-82
2022/04/06 05:56:13;;;;;;;;;;;10.20;99.90;;;;;;5033982;28;19930;-82
2022/04/06 05:58:40;;;;;;;;;;;10.20;99.90;;;;;;5018526;28;20354;-81
2022/04/06 06:01:08;;;;;;;;;;;10.20;99.90;;;;;;5005499;28;19975;-81
2022/04/06 06:03:34;;;;;;;;;;;10.20;99.90;;;;;;5024400;28;19929;-81
2022/04/06 06:06:01;;;;;;;;;;;10.20;99.90;;;;;;5024031;28;19964;-80
2022/04/06 06:08:28;;;;;;;;;;;10.20;99.90;;;;;;5018755;28;19957;-83
2022/04/06 06:10:56;;;;;;;;;;;10.30;99.90;;;;;;5010601;28;20402;-80
2022/04/06 06:13:27;;;;;;;;;;;10.30;99.90;;;;;;5018031;28;19972;-82
2022/04/06 06:15:54;;;;;;;;;;;10.30;99.90;;;;;;5034729;28;19926;-79
2022/04/06 06:18:24;;;;;;;;;;;10.20;99.90;;;;;;5033991;28;20000;-80
2022/04/06 06:20:51;;;;;;;;;;;10.30;99.90;;;;;;5021613;28;19925;-80
2022/04/06 06:23:19;;;;;;;;;;;10.40;99.90;;;;;;5033379;28;19996;-83
2022/04/06 06:25:47;;;;;;;;;;;10.40;99.90;;;;;;5034092;28;19948;-79
2022/04/06 06:28:14;;;;;;;;;;;10.50;99.90;;;;;;5023636;28;19925;-80
2022/04/06 06:30:45;;;;;;;;;;;10.50;99.90;;;;;;5032848;28;19913;-81
2022/04/06 06:33:14;;;;;;;;;;;10.50;99.90;;;;;;5039772;28;20186;-82
2022/04/06 06:35:42;;;;;;;;;;;10.50;99.90;;;;;;5026272;28;19926;-82
2022/04/06 06:38:14;;;;;;;;;;;10.40;99.90;;;;;;5031872;28;19925;-81
2022/04/06 06:40:42;;;;;;;;;;;10.40;99.90;;;;;;5032474;28;19929;-80
2022/04/06 06:43:09;;;;;;;;;;;10.40;99.90;;;;;;5038692;22;19929;-82
2022/04/06 06:45:35;;;;;;;;;;;10.40;99.90;;;;;;5021797;28;19929;-82
2022/04/06 06:48:04;;;;;;;;;;;10.40;99.90;;;;;;5038674;28;19929;-82
2022/04/06 06:50:30;;;;;;;;;;;10.50;99.90;;;;;;5035266;28;19940;-81
2022/04/06 06:52:57;;;;;;;;;;;10.50;99.90;;;;;;5040786;28;19948;-82
2022/04/06 06:55:24;;;;;;;;;;;10.50;99.90;;;;;;5051366;28;19925;-82
2022/04/06 06:57:51;;;;;;;;;;;10.60;99.90;;;;;;5019835;28;19929;-83
2022/04/06 07:00:18;;;;;;;;;;;10.60;99.90;;;;;;5018634;28;19925;-83
2022/04/06 07:02:45;;;;;;;;;;;10.60;99.90;;;;;;5017045;28;19933;-83
2022/04/06 07:05:13;;;;;;;;;;;10.60;99.90;;;;;;5035519;28;19925;-83
2022/04/06 07:07:50;;;;;;;;;;;10.60;99.90;;;;;;5048789;28;19925;-83
2022/04/06 07:10:17;;;;;;;;;;;10.60;99.90;;;;;;5052081;28;19929;-83
2022/04/06 07:12:44;;;;;;;;;;;10.50;99.90;;;;;;5041877;28;20000;-84
2022/04/06 07:15:11;;;;;;;;;;;10.50;99.90;;;;;;5043047;28;19945;-83
2022/04/06 07:17:38;;;;;;;;;;;10.50;99.90;;;;;;5042416;28;19949;-85
2022/04/06 07:20:06;;;;;;;;;;;10.60;99.90;;;;;;5038100;28;20380;-83
2022/04/06 07:22:34;;;;;;;;;;;10.70;99.90;;;;;;5023059;28;19987;-83
2022/04/06 07:25:01;;;;;;;;;;;10.70;99.90;;;;;;5041194;28;19985;-82
2022/04/06 07:27:34;;;;;;;;;;;10.70;99.90;;;;;;5056333;28;19928;-82
2022/04/06 07:30:00;;;;;;;;;;;10.70;99.90;;;;;;5040596;28;20408;-83
2022/04/06 07:32:28;;;;;;;;;;;10.80;99.90;;;;;;5018286;28;19929;-83
2022/04/06 07:34:55;;;;;;;;;;;10.90;99.90;;;;;;5016857;28;19935;-83
2022/04/06 07:37:22;;;;;;;;;;;11.00;99.90;;;;;;5035032;28;20314;-81
2022/04/06 07:39:50;;;;;;;;;;;11.20;99.90;;;;;;5017429;28;19970;-83
2022/04/06 07:42:17;;;;;;;;;;;11.30;99.90;;;;;;5034698;28;19979;-82
2022/04/06 07:44:43;;;;;;;;;;;11.40;99.90;;;;;;5017540;28;19952;-81
2022/04/06 07:47:10;;;;;;;;;;;11.40;99.90;;;;;;5021797;28;19913;-81
2022/04/06 07:49:37;;;;;;;;;;;11.40;99.90;;;;;;5048906;28;19929;-81
2022/04/06 07:52:04;;;;;;;;;;;11.40;99.90;;;;;;5047563;28;19997;-82
2022/04/06 07:54:31;;;;;;;;;;;11.40;99.90;;;;;;5050861;28;19947;-82
2022/04/06 07:56:59;;;;;;;;;;;11.50;99.90;;;;;;5055754;28;19935;-82
2022/04/06 07:59:25;;;;;;;;;;;11.60;99.90;;;;;;5052435;28;19940;-81
2022/04/06 08:01:52;;;;;;;;;;;11.70;99.90;;;;;;5016196;28;19940;-82
2022/04/06 08:04:19;;;;;;;;;;;11.80;99.90;;;;;;5037346;28;19925;-82
2022/04/06 08:06:45;;;;;;;;;;;11.80;99.90;;;;;;5035515;28;19929;-82
2022/04/06 08:09:12;;;;;;;;;;;11.80;99.90;;;;;;5033005;28;19954;-82
2022/04/06 08:11:39;;;;;;;;;;;11.70;99.90;;;;;;5038632;23;19932;-66
2022/04/06 08:14:07;;;;;;;;;;;11.70;99.90;;;;;;5003151;28;19925;-67
2022/04/06 08:16:34;;;;;;;;;;;11.60;99.90;;;;;;5000615;28;19930;-67
2022/04/06 08:19:00;;;;;;;;;;;11.50;99.90;;;;;;5000477;28;19934;-67
2022/04/06 08:21:27;;;;;;;;;;;11.50;99.90;;;;;;4997313;28;19934;-66
2022/04/06 08:23:54;;;;;;;;;;;11.40;99.90;;;;;;4994964;28;20287;-67
2022/04/06 08:26:21;;;;;;;;;;;11.40;99.90;;;;;;4999516;28;19956;-69
2022/04/06 08:28:49;;;;;;;;;;;11.30;99.90;;;;;;5000404;28;19968;-70
2022/04/06 08:31:17;;;;;;;;;;;11.30;99.90;;;;;;4992599;28;19932;-70
2022/04/06 08:33:44;;;;;;;;;;;11.40;99.90;;;;;;5000037;28;19933;-70
2022/04/06 08:36:12;;;;;;;;;;;14.20;99.90;;;;;;4976734;28;20016;-69
2022/04/06 08:38:39;;;;;;;;;;;11.60;99.90;;;;;;4994598;28;19930;-70
2022/04/06 08:41:07;;;;;;;;;;;11.80;99.90;;;;;;5000454;28;19940;-70
2022/04/06 08:43:33;;;;;;;;;;;12.10;99.90;;;;;;4997162;28;19929;-67
2022/04/06 08:46:00;;;;;;;;;;;12.30;99.90;;;;;;4997277;28;19940;-67
2022/04/06 08:48:29;;;;;;;;;;;12.70;99.90;;;;;;4998496;28;19930;-68
2022/04/06 08:50:57;;;;;;;;;;;12.90;99.90;;;;;;4990239;28;19969;-68
2022/04/06 08:53:24;;;;;;;;;;;13.10;99.90;;;;;;4986499;28;20135;-70
2022/04/06 08:55:50;;;;;;;;;;;13.20;99.90;;;;;;4989032;28;19934;-70
2022/04/06 08:58:17;;;;;;;;;;;13.30;99.90;;;;;;4996214;28;19929;-71
2022/04/06 09:00:44;;;;;;;;;;;13.50;99.90;;;;;;4987498;28;19926;-70
2022/04/06 09:03:11;;;;;;;;;;;13.60;99.90;;;;;;4986835;28;19937;-71
2022/04/06 09:05:39;;;;;;;;;;;13.70;99.90;;;;;;4994085;28;20032;-70
2022/04/06 09:08:06;;;;;;;;;;;13.80;99.90;;;;;;4999182;28;20318;-70
2022/04/06 09:10:34;;;;;;;;;;;13.90;99.90;;;;;;4993546;28;19929;-70
2022/04/06 09:13:11;;;;;;;;;;;13.90;99.90;;;;;;4999186;28;20024;-71
2022/04/06 09:15:37;;;;;;;;;;;13.90;99.90;;;;;;4984592;28;19936;-70
2022/04/06 09:18:04;;;;;;;;;;;13.70;99.90;;;;;;4988468;28;19926;-70
2022/04/06 09:20:31;;;;;;;;;;;13.70;99.90;;;;;;4992358;28;19937;-70
2022/04/06 09:23:02;;;;;;;;;;;13.60;99.90;;;;;;4975480;28;19953;-68
2022/04/06 09:25:33;;;;;;;;;;;13.60;99.90;;;;;;4970945;28;19929;-68
2022/04/06 09:28:05;;;;;;;;;;;13.70;99.90;;;;;;4989127;28;19999;-68
2022/04/06 09:30:32;;;;;;;;;;;13.70;99.90;;;;;;4996495;28;20313;-68
2022/04/06 09:33:02;;;;;;;;;;;13.60;99.90;;;;;;4992351;28;20447;-68
2022/04/06 09:35:30;;;;;;;;;;;16.00;99.90;;;;;;4994049;28;20028;-68
2022/04/06 09:38:10;;;;;;;;;;;13.40;99.90;;;;;;5001947;28;19940;-68
2022/04/06 09:40:39;;;;;;;;;;;13.30;99.90;;;;;;4971155;28;19980;-69
2022/04/06 09:43:06;;;;;;;;;;;13.00;99.90;;;;;;4998087;28;19929;-67
2022/04/06 09:48:17;;;;;;;;;;;12.90;99.90;;;;;;4987719;28;20595;-69
2022/04/06 09:50:53;;;;;;;;;;;12.80;99.90;;;;;;4996796;28;20016;-70
2022/04/06 09:53:22;;;;;;;;;;;12.70;99.90;;;;;;4994268;28;19930;-67
2022/04/06 09:55:50;;;;;;;;;;;12.60;99.90;;;;;;4988144;28;19926;-69
2022/04/06 09:58:16;;;;;;;;;;;13.20;99.90;;;;;;4999904;28;20310;-70
2022/04/06 10:00:43;;;;;;;;;;;12.50;99.90;;;;;;4998369;28;19925;-70
2022/04/06 10:03:11;;;;;;;;;;;12.50;99.90;;;;;;4996409;28;19937;-70
2022/04/06 10:05:38;;;;;;;;;;;12.50;99.90;;;;;;4992904;28;19936;-70
2022/04/06 10:08:06;;;;;;;;;;;12.50;99.90;;;;;;4991313;28;20354;-69
2022/04/06 10:10:35;;;;;;;;;;;12.60;99.90;;;;;;5006015;28;19929;-69
2022/04/06 10:13:04;;;;;;;;;;;12.60;99.90;;;;;;5001248;28;19995;-69
2022/04/06 10:15:31;;;;;;;;;;;12.70;99.90;;;;;;4992958;28;19937;-71
2022/04/06 10:17:59;;;;;;;;;;;13.00;99.90;;;;;;4984899;28;19926;-69
2022/04/06 10:20:28;;;;;;;;;;;13.20;99.90;;;;;;4961952;28;19937;-69
2022/04/06 10:23:01;;;;;;;;;;;13.40;99.90;;;;;;4981601;28;19930;-70
2022/04/06 10:25:31;;;;;;;;;;;13.60;99.90;;;;;;4982392;28;20036;-70
2022/04/06 10:28:02;;;;;;;;;;;13.70;99.90;;;;;;4976597;28;20414;-70
2022/04/06 10:30:29;;;;;;;;;;;13.90;99.90;;;;;;4992094;28;20540;-70
2022/04/06 10:32:57;;;;;;;;;;;14.00;99.90;;;;;;4989484;28;20016;-69
2022/04/06 10:35:25;;;;;;;;;;;14.10;99.90;;;;;;5002586;28;19925;-70
2022/04/06 10:37:54;;;;;;;;;;;14.10;99.90;;;;;;5002581;28;20467;-69
2022/04/06 10:40:22;;;;;;;;;;;14.10;99.90;;;;;;4979569;28;19957;-70
2022/04/06 10:42:48;;;;;;;;;;;14.00;99.90;;;;;;4993478;28;20327;-69
2022/04/06 10:45:30;;;;;;;;;;;14.00;99.90;;;;;;4987419;28;19930;-69
2022/04/06 10:48:10;;;;;;;;;;;14.00;99.90;;;;;;4986447;28;19930;-67
2022/04/06 10:50:37;;;;;;;;;;;14.00;99.90;;;;;;4998280;28;20387;-67
2022/04/06 10:53:23;;;;;;;;;;;13.90;99.90;;;;;;4980981;28;19944;-67
2022/04/06 10:55:56;;;;;;;;;;;13.90;99.90;;;;;;4985464;28;20016;-68
2022/04/06 10:58:24;;;;;;;;;;;13.90;99.90;;;;;;4991056;28;20032;-66
2022/04/06 11:01:05;;;;;;;;;;;13.90;99.90;;;;;;4993669;28;19926;-69
2022/04/06 11:03:35;;;;;;;;;;;13.80;99.90;;;;;;4977139;28;19934;-68
2022/04/06 11:06:01;;;;;;;;;;;13.70;99.90;;;;;;5001179;28;20373;-67
2022/04/06 11:11:45;;;;;;;;;;;13.60;99.90;;;;;;4976197;28;19942;-67
2022/04/06 11:14:12;;;;;;;;;;;13.50;99.90;;;;;;4999133;28;19945;-67
2022/04/06 11:16:45;;;;;;;;;;;13.60;99.90;;;;;;5006265;28;19988;-67
2022/04/06 11:19:14;;;;;;;;;;;13.60;99.90;;;;;;5000114;28;20399;-67
2022/04/06 11:21:48;;;;;;;;;;;13.60;99.90;;;;;;5002517;28;19949;-67
2022/04/06 11:24:19;;;;;;;;;;;13.60;99.90;;;;;;4988172;28;19926;-67
2022/04/06 11:26:46;;;;;;;;;;;13.60;99.90;;;;;;4993244;28;19929;-67
2022/04/06 11:29:13;;;;;;;;;;;13.50;99.90;;;;;;4981674;28;20422;-67
2022/04/06 11:31:57;;;;;;;;;;;13.40;99.90;;;;;;4985760;28;19937;-67
2022/04/06 11:34:33;;;;;;;;;;;13.40;99.90;;;;;;4981259;28;20007;-68
2022/04/06 11:37:00;;;;;;;;;;;13.30;99.90;;;;;;4998823;28;20016;-67
2022/04/06 11:39:29;;;;;;;;;;;13.20;99.90;;;;;;4998955;28;21833;-66
2022/04/06 11:41:55;;;;;;;;;;;13.10;99.90;;;;;;4996862;28;19929;-67
2022/04/06 11:44:24;;;;;;;;;;;12.90;99.90;;;;;;5508940;23;20347;-68
2022/04/06 11:46:51;;;;;;;;;;;12.90;99.90;;;;;;5017456;28;19925;-66
2022/04/06 11:49:20;;;;;;;;;;;12.70;99.90;;;;;;5022677;28;19938;-68
2022/04/06 11:51:48;;;;;;;;;;;12.70;99.90;;;;;;5024353;28;19929;-66
2022/04/06 11:54:16;;;;;;;;;;;12.70;99.90;;;;;;5028484;28;20042;-67
2022/04/06 11:56:43;;;;;;;;;;;12.70;99.90;;;;;;5016893;23;19933;-70
2022/04/06 11:59:10;;;;;;;;;;;14.20;99.90;;;;;;5023631;28;20306;-70
2022/04/06 12:01:42;;;;;;;;;;;12.70;99.90;;;;;;5025924;28;19929;-70
2022/04/06 12:04:12;;;;;;;;;;;12.80;99.90;;;;;;5020130;28;19933;-74
2022/04/06 12:06:39;;;;;;;;;;;12.80;99.90;;;;;;5023965;28;19936;-72
2022/04/06 12:09:08;;;;;;;;;;;12.80;99.90;;;;;;5033759;28;19952;-72
2022/04/06 12:11:35;;;;;;;;;;;12.70;99.90;;;;;;5018983;28;19933;-72
2022/04/06 12:14:02;;;;;;;;;;;12.70;99.90;;;;;;5022922;28;19967;-71
2022/04/06 12:16:29;;;;;;;;;;;12.70;99.90;;;;;;5021289;28;19944;-69
2022/04/06 12:18:56;;;;;;;;;;;12.70;99.90;;;;;;5013483;28;19932;-68
2022/04/06 12:21:24;;;;;;;;;;;12.60;99.90;;;;;;5036533;28;19944;-68
2022/04/06 12:23:51;;;;;;;;;;;12.60;99.90;;;;;;5023506;28;20028;-68
2022/04/06 12:26:19;;;;;;;;;;;12.60;99.90;;;;;;5018471;28;19973;-68
2022/04/06 12:28:47;;;;;;;;;;;12.60;99.90;;;;;;5019950;28;20314;-70
2022/04/06 12:31:14;;;;;;;;;;;12.60;99.90;;;;;;5014382;28;20015;-69
2022/04/06 12:33:42;;;;;;;;;;;12.70;99.90;;;;;;5015795;28;19930;-68
2022/04/06 12:36:10;;;;;;;;;;;12.80;99.90;;;;;;5013506;28;19929;-68
2022/04/06 12:38:37;;;;;;;;;;;12.90;99.90;;;;;;5022613;28;20323;-69
2022/04/06 12:41:05;;;;;;;;;;;13.00;99.90;;;;;;5018535;28;19932;-69
2022/04/06 12:43:33;;;;;;;;;;;13.10;99.90;;;;;;5015560;28;19945;-68
2022/04/06 12:45:59;;;;;;;;;;;13.00;99.90;;;;;;5020715;28;19949;-70
2022/04/06 12:48:28;;;;;;;;;;;15.00;99.90;;;;;;5018792;28;19936;-70
2022/04/06 12:50:55;;;;;;;;;;;12.80;99.90;;;;;;5031812;28;19933;-71
2022/04/06 12:53:22;;;;;;;;;;;12.80;99.90;;;;;;5009522;28;19929;-71
2022/04/06 12:56:08;;;;;;;;;;;12.80;99.90;;;;;;5014916;28;19930;-69
2022/04/06 12:58:37;;;;;;;;;;;12.80;99.90;;;;;;5032993;28;19929;-68
2022/04/06 13:01:09;;;;;;;;;;;12.70;99.90;;;;;;5042014;28;19929;-69
2022/04/06 13:03:36;;;;;;;;;;;12.60;99.90;;;;;;5036345;28;19975;-69
2022/04/06 13:06:03;;;;;;;;;;;12.60;99.90;;;;;;5044332;28;20492;-70
2022/04/06 13:08:29;;;;;;;;;;;12.60;99.90;;;;;;5039504;28;20313;-69
2022/04/06 13:11:00;;;;;;;;;;;14.50;99.90;;;;;;5036886;28;19929;-69
2022/04/06 13:13:27;;;;;;;;;;;12.70;99.90;;;;;;5031560;28;19925;-70
2022/04/06 13:15:55;;;;;;;;;;;12.70;99.90;;;;;;5042987;28;19929;-69
2022/04/06 13:18:22;;;;;;;;;;;12.70;99.90;;;;;;5036915;28;19936;-70
2022/04/06 13:20:48;;;;;;;;;;;12.80;99.90;;;;;;5031779;28;19933;-70
2022/04/06 13:23:15;;;;;;;;;;;12.90;99.90;;;;;;5033861;28;19925;-70
2022/04/06 13:25:42;;;;;;;;;;;12.90;99.90;;;;;;5044196;28;20321;-70
2022/04/06 13:28:09;;;;;;;;;;;12.90;99.90;;;;;;5028084;28;19925;-69
2022/04/06 13:30:36;;;;;;;;;;;13.00;99.90;;;;;;5047316;28;19936;-70
2022/04/06 13:33:04;;;;;;;;;;;13.10;99.90;;;;;;5030440;28;20436;-70
2022/04/06 13:35:31;;;;;;;;;;;;;;;;;;5044749;28;19943;-70
2022/04/06 13:37:58;;;;;;;;;;;13.30;99.90;;;;;;5039237;28;20454;-70
2022/04/06 13:40:25;;;;;;;;;;;13.40;99.90;;;;;;5041309;28;19929;-70
2022/04/06 13:42:53;;;;;;;;;;;13.40;99.90;;;;;;5040104;28;19939;-70
2022/04/06 13:45:19;;;;;;;;;;;13.50;99.90;;;;;;5037537;28;19948;-70
2022/04/06 13:47:46;;;;;;;;;;;13.50;99.90;;;;;;5042976;28;19928;-70
2022/04/06 13:50:14;;;;;;;;;;;13.60;99.90;;;;;;5037795;28;19933;-70
2022/04/06 13:52:41;;;;;;;;;;;13.70;99.90;;;;;;5041515;28;19936;-71
2022/04/06 13:55:09;;;;;;;;;;;13.70;99.90;;;;;;5047881;28;20018;-70
2022/04/06 13:57:36;;;;;;;;;;;13.80;99.90;;;;;;5039908;28;19935;-70
2022/04/06 14:00:03;;;;;;;;;;;13.80;99.90;;;;;;5043946;28;20584;-70
2022/04/06 14:02:39;;;;;;;;;;;14.00;99.90;;;;;;5041673;28;19929;-70
2022/04/06 14:05:05;;;;;;;;;;;14.10;99.90;;;;;;5033942;28;19928;-70
2022/04/06 14:07:34;;;;;;;;;;;14.10;99.90;;;;;;5041772;28;19929;-70
2022/04/06 14:10:00;;;;;;;;;;;14.10;99.90;;;;;;5038940;28;19928;-70
2022/04/06 14:12:27;;;;;;;;;;;12.50;99.90;;;;;;5034964;28;20416;-70
2022/04/06 14:14:54;;;;;;;;;;;14.00;99.90;;;;;;5044760;28;19925;-72
2022/04/06 14:17:21;;;;;;;;;;;13.90;99.90;;;;;;5036960;28;20394;-72
2022/04/06 14:19:48;;;;;;;;;;;13.90;99.90;;;;;;5031516;28;19936;-70
2022/04/06 14:22:15;;;;;;;;;;;13.90;99.90;;;;;;5044632;28;20381;-70
2022/04/06 14:25:15;;;;;;;;;;;14.00;99.90;;;;;;5038846;28;20262;-69
2022/04/06 14:27:29;;;;;;;;;;;14.10;99.90;;;;;;5040354;28;19944;-69
2022/04/06 14:29:56;;;;;;;;;;;15.00;99.90;;;;;;5042466;28;20274;-69
2022/04/06 14:32:23;;;;;;;;;;;14.20;99.90;;;;;;5035849;28;20002;-69